Time;durP1;ratioP1;P1;durP2;ratioP2;P2;SDS_P1;SDS_P2;PMS_P1;PMS_P2;Temp;Humidity;BMP_temperature;BMP_pressure;BME280_temperature;BME280_humidity;BME280_pressure;Samples;Min_cycle;Max_cycle;Signal;HPM_P1;HPM_P2
2021/09/23 00:00:06;;;;;;;19.85;16.02;;;333.20;2073.60;;;;;;5097515;28;20031;-63
2021/09/23 00:02:47;;;;;;;22.75;16.15;;;333.20;2073.60;;;;;;5097442;28;20115;-63
2021/09/23 00:05:23;;;;;;;21.45;15.40;;;333.20;2022.40;;;;;;5097199;28;20032;-63
2021/09/23 00:07:50;;;;;;;18.77;15.68;;;333.10;2048.00;;;;;;5097323;28;20031;-63
2021/09/23 00:10:28;;;;;;;23.33;16.02;;;333.20;2048.00;;;;;;5095855;28;20028;-63
2021/09/23 00:12:56;;;;;;;22.45;17.13;;;333.10;2022.40;;;;;;5097362;28;20071;-65
2021/09/23 00:15:23;;;;;;;20.52;16.33;;;333.10;2048.00;;;;;;5095835;28;20085;-66
2021/09/23 00:17:53;;;;;;;22.75;16.80;;;333.30;2048.00;;;;;;5097559;28;20458;-65
2021/09/23 00:20:22;;;;;;;22.13;16.70;;;333.00;2048.00;;;;;;5097135;28;20036;-65
2021/09/23 00:22:48;;;;;;;20.88;17.30;;;333.00;2048.00;;;;;;5095833;28;20583;-63
2021/09/23 00:25:14;;;;;;;22.98;16.33;;;333.00;2022.40;;;;;;5097194;28;20031;-63
2021/09/23 00:27:41;;;;;;;19.75;16.33;;;333.00;2048.00;;;;;;5094849;28;20133;-63
2021/09/23 00:30:08;;;;;;;25.23;15.23;;;332.90;2048.00;;;;;;5097092;28;20030;-63
2021/09/23 00:32:34;;;;;;;26.00;18.20;;;332.90;2022.40;;;;;;5095604;28;20121;-63
2021/09/23 00:35:00;;;;;;;22.77;16.95;;;332.80;2048.00;;;;;;5097035;28;20025;-63
2021/09/23 00:37:25;;;;;;;21.58;16.02;;;332.80;2048.00;;;;;;5096798;28;20097;-63
2021/09/23 00:39:51;;;;;;;22.90;17.40;;;332.80;2022.40;;;;;;5096528;28;20020;-63
2021/09/23 00:42:18;;;;;;;21.42;15.48;;;332.80;2022.40;;;;;;5096722;28;20451;-63
2021/09/23 00:44:54;;;;;;;19.42;15.73;;;308.10;2022.40;;;;;;5096749;28;20020;-63
2021/09/23 00:47:20;;;;;;;20.45;15.88;;;308.10;1996.80;;;;;;5096519;28;20024;-63
2021/09/23 00:49:46;;;;;;;24.17;15.75;;;308.00;1996.80;;;;;;5094446;28;20035;-63
2021/09/23 00:52:12;;;;;;;19.15;15.10;;;308.00;2022.40;;;;;;5096314;28;20447;-64
2021/09/23 00:54:37;;;;;;;17.95;15.60;;;308.00;1996.80;;;;;;5095506;28;20024;-63
2021/09/23 00:57:03;;;;;;;22.10;15.55;;;307.90;1971.20;;;;;;5096216;28;20496;-63
2021/09/23 00:59:29;;;;;;;16.75;14.02;;;307.90;1996.80;;;;;;5094432;28;20123;-63
2021/09/23 01:01:55;;;;;;;17.77;14.65;;;307.90;1971.20;;;;;;5093701;28;20052;-64
2021/09/23 01:04:20;;;;;;;20.95;14.65;;;307.80;1971.20;;;;;;5094940;28;20473;-63
2021/09/23 01:06:50;;;;;;;17.02;13.75;;;307.70;1971.20;;;;;;5094454;28;20185;-63
2021/09/23 01:09:17;;;;;;;17.83;13.05;;;307.70;1945.60;;;;;;5094453;28;20067;-63
2021/09/23 01:11:43;;;;;;;21.38;14.23;;;307.60;1971.20;;;;;;5095455;28;20052;-64
2021/09/23 01:14:09;;;;;;;16.55;13.50;;;307.60;1996.80;;;;;;5096104;28;20327;-63
2021/09/23 01:16:34;;;;;;;14.60;11.80;;;307.50;1971.20;;;;;;5096233;28;20032;-63
2021/09/23 01:19:00;;;;;;;15.23;12.10;;;307.50;1971.20;;;;;;5096276;28;20020;-63
2021/09/23 01:21:26;;;;;;;14.05;11.43;;;307.40;1996.80;;;;;;5096275;28;20194;-63
2021/09/23 01:23:51;;;;;;;12.60;10.65;;;307.40;1971.20;;;;;;5096237;28;20032;-64
2021/09/23 01:26:23;;;;;;;14.70;11.10;;;307.40;1971.20;;;;;;5096502;28;20020;-63
2021/09/23 01:28:49;;;;;;;14.40;10.05;;;307.30;1996.80;;;;;;5096135;28;20132;-64
2021/09/23 01:31:15;;;;;;;13.27;10.35;;;307.30;1996.80;;;;;;5095117;28;20056;-63
2021/09/23 01:33:41;;;;;;;16.75;10.70;;;307.30;1971.20;;;;;;5095700;28;20024;-63
2021/09/23 01:36:06;;;;;;;14.30;10.02;;;307.30;1996.80;;;;;;5095696;28;20060;-63
2021/09/23 01:38:32;;;;;;;12.98;10.20;;;307.30;1971.20;;;;;;5096026;28;20416;-64
2021/09/23 01:40:58;;;;;;;14.10;11.40;;;307.30;1945.60;;;;;;5095420;28;20134;-63
2021/09/23 01:43:24;;;;;;;11.30;9.35;;;307.20;1971.20;;;;;;5095548;28;20031;-63
2021/09/23 01:45:50;;;;;;;13.40;9.90;;;307.20;1971.20;;;;;;5095569;28;20024;-63
2021/09/23 01:48:16;;;;;;;13.18;10.98;;;307.20;1971.20;;;;;;5095402;28;20081;-64
2021/09/23 01:50:42;;;;;;;11.88;10.07;;;307.20;1996.80;;;;;;5095566;28;20043;-63
2021/09/23 01:53:08;;;;;;;13.15;10.57;;;307.20;1996.80;;;;;;5095714;28;20032;-63
2021/09/23 01:55:34;;;;;;;15.93;11.30;;;307.20;2022.40;;;;;;5095292;28;20024;-64
2021/09/23 01:58:00;;;;;;;14.85;11.15;;;307.20;2022.40;;;;;;5095032;28;20389;-64
2021/09/23 02:00:26;;;;;;;14.30;12.00;;;307.20;2022.40;;;;;;5095439;28;20027;-63
2021/09/23 02:02:54;;;;;;;15.57;13.10;;;307.20;2048.00;;;;;;5095150;28;20036;-63
2021/09/23 02:05:20;;;;;;;17.23;14.65;;;307.20;2048.00;;;;;;5094478;28;20024;-64
2021/09/23 02:07:46;;;;;;;19.15;16.35;;;307.20;2048.00;;;;;;5095259;28;20538;-63
2021/09/23 02:10:12;;;;;;;18.77;16.75;;;307.20;2048.00;;;;;;5094793;28;20044;-64
2021/09/23 02:12:38;;;;;;;18.45;15.15;;;307.20;2048.00;;;;;;5094689;28;20374;-63
2021/09/23 02:15:04;;;;;;;19.00;15.80;;;307.20;2048.00;;;;;;5095072;28;20027;-63
2021/09/23 02:17:30;;;;;;;18.85;15.85;;;307.20;2048.00;;;;;;5094025;28;20030;-64
2021/09/23 02:19:57;;;;;;;15.77;13.75;;;307.20;2022.40;;;;;;5092948;28;20119;-63
2021/09/23 02:22:24;;;;;;;20.55;12.82;;;307.20;2048.00;;;;;;5094712;28;20124;-64
2021/09/23 02:24:51;;;;;;;16.27;12.77;;;307.20;2022.40;;;;;;5094578;28;20024;-63
2021/09/23 02:27:17;;;;;;;16.00;12.27;;;307.20;2022.40;;;;;;5093061;28;20044;-63
2021/09/23 02:29:43;;;;;;;13.43;11.77;;;307.20;2022.40;;;;;;5095277;28;20027;-63
2021/09/23 02:32:09;;;;;;;14.35;12.55;;;307.20;1971.20;;;;;;5094430;28;20025;-63
2021/09/23 02:34:35;;;;;;;16.20;12.93;;;307.20;1996.80;;;;;;5094692;28;20036;-63
2021/09/23 02:37:02;;;;;;;16.33;13.13;;;282.50;1971.20;;;;;;5094737;28;20016;-63
2021/09/23 02:39:27;;;;;;;16.95;13.43;;;282.50;1971.20;;;;;;5093092;28;20035;-63
2021/09/23 02:41:53;;;;;;;15.57;12.73;;;282.50;1996.80;;;;;;5094410;28;20024;-64
2021/09/23 02:44:19;;;;;;;16.30;13.38;;;282.50;1971.20;;;;;;5092855;28;20044;-63
2021/09/23 02:46:45;;;;;;;15.32;12.90;;;307.20;2022.40;;;;;;5094986;28;20065;-63
2021/09/23 02:49:11;;;;;;;16.73;12.68;;;282.50;1996.80;;;;;;5093165;28;20132;-63
2021/09/23 02:51:37;;;;;;;17.70;13.13;;;282.50;1971.20;;;;;;5094419;28;20530;-63
2021/09/23 02:54:03;;;;;;;15.20;12.18;;;282.50;1996.80;;;;;;5094145;28;20030;-63
2021/09/23 02:56:28;;;;;;;16.48;13.07;;;282.50;1971.20;;;;;;5094264;28;20362;-63
2021/09/23 02:58:55;;;;;;;17.02;12.77;;;282.50;1971.20;;;;;;5094148;28;20103;-63
2021/09/23 03:01:21;;;;;;;14.65;12.27;;;282.50;1996.80;;;;;;5092447;28;20048;-63
2021/09/23 03:03:47;;;;;;;16.15;12.45;;;282.50;1971.20;;;;;;5094123;28;20117;-63
2021/09/23 03:06:13;;;;;;;19.60;12.38;;;282.50;1971.20;;;;;;5093983;28;20020;-64
2021/09/23 03:08:39;;;;;;;17.48;12.15;;;282.50;1996.80;;;;;;5094183;28;20060;-63
2021/09/23 03:11:05;;;;;;;16.38;12.93;;;282.50;1945.60;;;;;;5094118;28;20411;-63
2021/09/23 03:13:31;;;;;;;15.13;12.20;;;282.50;1971.20;;;;;;5093744;28;20458;-62
2021/09/23 03:15:57;;;;;;;13.85;11.75;;;282.50;1996.80;;;;;;5094146;28;20036;-61
2021/09/23 03:18:23;;;;;;;15.32;12.02;;;282.50;1945.60;;;;;;5093695;28;20086;-63
2021/09/23 03:20:49;;;;;;;15.95;13.27;;;282.50;1945.60;;;;;;5094135;28;20032;-63
2021/09/23 03:23:16;;;;;;;16.27;12.27;;;282.40;1971.20;;;;;;5093248;28;20040;-63
2021/09/23 03:25:42;;;;;;;15.27;13.43;;;282.40;1945.60;;;;;;5093543;28;20024;-63
2021/09/23 03:28:08;;;;;;;18.75;14.27;;;282.40;1971.20;;;;;;5093829;28;20370;-62
2021/09/23 03:30:35;;;;;;;16.85;13.38;;;282.40;1971.20;;;;;;5092035;28;20032;-65
2021/09/23 03:33:07;;;;;;;15.23;13.07;;;282.30;1945.60;;;;;;5093738;28;20430;-62
2021/09/23 03:35:33;;;;;;;21.63;13.68;;;282.30;1971.20;;;;;;5092603;28;20110;-62
2021/09/23 03:37:59;;;;;;;14.32;12.20;;;282.30;1945.60;;;;;;5093450;28;20029;-63
2021/09/23 03:40:26;;;;;;;19.15;12.65;;;282.30;1920.00;;;;;;5093506;28;20027;-65
2021/09/23 03:42:52;;;;;;;16.38;12.13;;;282.30;1945.60;;;;;;5093707;28;20089;-63
2021/09/23 03:45:18;;;;;;;14.95;11.48;;;282.20;1945.60;;;;;;5093691;28;20028;-62
2021/09/23 03:47:44;;;;;;;12.38;10.93;;;282.20;1920.00;;;;;;5093503;28;20027;-63
2021/09/23 03:50:11;;;;;;;14.05;10.07;;;282.10;1920.00;;;;;;5093691;28;20020;-62
2021/09/23 03:52:38;;;;;;;13.73;10.13;;;282.10;1945.60;;;;;;5092184;28;20385;-62
2021/09/23 03:55:05;;;;;;;15.27;10.45;;;282.00;1920.00;;;;;;5093414;28;20068;-65
2021/09/23 03:57:30;;;;;;;13.40;9.65;;;281.90;1945.60;;;;;;5093463;28;20541;-62
2021/09/23 03:59:56;;;;;;;12.27;9.10;;;281.90;1971.20;;;;;;5093470;28;20111;-65
2021/09/23 04:02:22;;;;;;;8.38;7.13;;;281.90;1971.20;;;;;;5093461;28;20035;-65
2021/09/23 04:04:48;;;;;;;9.70;6.50;;;281.80;1971.20;;;;;;5093596;28;20036;-62
2021/09/23 04:07:14;;;;;;;7.40;6.00;;;281.80;1971.20;;;;;;5093279;28;20601;-62
2021/09/23 04:09:40;;;;;;;7.65;6.38;;;281.80;1971.20;;;;;;5093158;28;20081;-62
2021/09/23 04:12:06;;;;;;;6.82;6.13;;;281.80;1971.20;;;;;;5092995;28;20405;-62
2021/09/23 04:14:32;;;;;;;7.75;6.95;;;281.80;1971.20;;;;;;5093374;28;20016;-62
2021/09/23 04:16:58;;;;;;;7.50;6.53;;;281.80;1971.20;;;;;;5092913;28;20496;-62
2021/09/23 04:19:24;;;;;;;7.90;7.10;;;281.80;1996.80;;;;;;5091475;28;20055;-62
2021/09/23 04:21:50;;;;;;;10.38;7.68;;;281.80;1996.80;;;;;;5093405;28;20331;-62
2021/09/23 04:24:16;;;;;;;9.75;7.55;;;281.80;1996.80;;;;;;5092747;28;20363;-62
2021/09/23 04:26:42;;;;;;;11.27;7.47;;;281.70;1996.80;;;;;;5091069;28;20081;-62
2021/09/23 04:29:08;;;;;;;8.75;7.35;;;281.80;1996.80;;;;;;5095046;28;20378;-63
2021/09/23 04:31:34;;;;;;;8.50;7.50;;;281.80;2022.40;;;;;;5097054;28;20020;-62
2021/09/23 04:34:00;;;;;;;11.73;9.90;;;281.70;1996.80;;;;;;5094943;28;20035;-62
2021/09/23 04:36:26;;;;;;;14.57;9.13;;;281.80;1996.80;;;;;;5096541;28;20073;-63
2021/09/23 04:38:52;;;;;;;14.07;7.95;;;281.80;1996.80;;;;;;5096347;28;20027;-65
2021/09/23 04:41:17;;;;;;;13.35;7.65;;;281.80;1996.80;;;;;;5096605;28;20028;-65
2021/09/23 04:43:46;;;;;;;9.93;8.55;;;281.80;1996.80;;;;;;5097041;28;20032;-65
2021/09/23 04:46:12;;;;;;;10.63;7.47;;;281.80;1996.80;;;;;;5096798;28;20495;-65
2021/09/23 04:48:38;;;;;;;13.20;8.90;;;281.80;1971.20;;;;;;5093834;28;20059;-63
2021/09/23 04:51:04;;;;;;;11.50;8.50;;;281.80;1996.80;;;;;;5096325;28;20043;-63
2021/09/23 04:53:29;;;;;;;13.25;8.38;;;281.80;1996.80;;;;;;5096856;28;20101;-63
2021/09/23 04:55:55;;;;;;;11.48;9.02;;;281.90;1996.80;;;;;;5096193;28;20024;-65
2021/09/23 04:58:21;;;;;;;12.23;8.40;;;281.90;2022.40;;;;;;5096545;28;20103;-65
2021/09/23 05:00:47;;;;;;;12.63;9.75;;;281.90;1996.80;;;;;;5096367;28;20028;-65
2021/09/23 05:03:14;;;;;;;12.85;10.85;;;281.90;2022.40;;;;;;5096281;28;20474;-65
2021/09/23 05:05:40;;;;;;;17.73;11.35;;;281.90;2022.40;;;;;;5095866;28;20023;-64
2021/09/23 05:08:06;;;;;;;16.77;10.88;;;281.90;2022.40;;;;;;5096270;28;20030;-62
2021/09/23 05:10:35;;;;;;;15.57;10.77;;;282.00;2048.00;;;;;;5096046;28;20044;-66
2021/09/23 05:13:02;;;;;;;17.25;12.02;;;282.00;2022.40;;;;;;5094873;28;20032;-63
2021/09/23 05:15:27;;;;;;;25.33;12.15;;;282.10;2048.00;;;;;;5095785;28;20569;-63
2021/09/23 05:17:53;;;;;;;16.75;11.75;;;282.00;2073.60;;;;;;5096131;28;20060;-65
2021/09/23 05:20:19;;;;;;;15.85;11.85;;;282.20;2048.00;;;;;;5095628;28;20084;-65
2021/09/23 05:22:44;;;;;;;17.15;12.98;;;282.20;2048.00;;;;;;5095772;28;20039;-67
2021/09/23 05:25:11;;;;;;;16.85;11.65;;;282.20;2073.60;;;;;;5095745;28;20032;-65
2021/09/23 05:27:38;;;;;;;16.73;11.57;;;282.30;2048.00;;;;;;5094036;28;20383;-65
2021/09/23 05:30:08;;;;;;;17.75;11.50;;;282.30;2048.00;;;;;;5095259;28;20028;-65
2021/09/23 05:32:34;;;;;;;14.38;11.35;;;282.40;2073.60;;;;;;5095614;28;20085;-65
2021/09/23 05:35:00;;;;;;;24.25;12.50;;;282.50;2073.60;;;;;;5095090;28;20412;-65
2021/09/23 05:37:25;;;;;;;15.02;11.07;;;282.50;2073.60;;;;;;5095759;28;20050;-65
2021/09/23 05:39:51;;;;;;;22.90;13.63;;;307.20;2099.20;;;;;;5095286;28;20052;-65
2021/09/23 05:42:17;;;;;;;17.42;12.23;;;307.20;2099.20;;;;;;5093739;28;20545;-63
2021/09/23 05:44:43;;;;;;;17.15;11.90;;;307.20;2099.20;;;;;;5095521;28;20024;-63
2021/09/23 05:47:09;;;;;;;14.80;10.90;;;307.30;2124.80;;;;;;5093919;28;20451;-63
2021/09/23 05:49:34;;;;;;;19.27;12.18;;;307.40;2099.20;;;;;;5095525;28;20051;-62
2021/09/23 05:52:00;;;;;;;14.77;10.75;;;307.40;2099.20;;;;;;5095432;28;20085;-63
2021/09/23 05:54:27;;;;;;;14.80;10.35;;;307.40;2099.20;;;;;;5095659;28;20028;-65
2021/09/23 05:56:53;;;;;;;13.43;11.02;;;307.50;2124.80;;;;;;5095028;28;20093;-65
2021/09/23 05:59:19;;;;;;;16.08;10.60;;;307.60;2099.20;;;;;;5093628;28;20043;-65
2021/09/23 06:01:45;;;;;;;18.02;13.70;;;307.60;2099.20;;;;;;5094750;28;20020;-65
2021/09/23 06:04:11;;;;;;;15.40;12.02;;;307.70;2099.20;;;;;;5095168;28;20036;-63
2021/09/23 06:06:37;;;;;;;23.52;14.93;;;307.80;2124.80;;;;;;5093375;28;20028;-63
2021/09/23 06:09:03;;;;;;;20.42;14.65;;;307.80;2124.80;;;;;;5095193;28;20054;-62
2021/09/23 06:11:29;;;;;;;24.40;14.32;;;307.80;2124.80;;;;;;5094612;28;20529;-63
2021/09/23 06:13:55;;;;;;;19.23;12.68;;;307.90;2124.80;;;;;;5095021;28;20040;-63
2021/09/23 06:16:21;;;;;;;16.27;12.38;;;307.90;2124.80;;;;;;5094476;28;20027;-63
2021/09/23 06:18:47;;;;;;;17.52;12.15;;;308.00;2124.80;;;;;;5093094;28;20047;-63
2021/09/23 06:21:13;;;;;;;17.55;13.35;;;308.00;2124.80;;;;;;5094753;28;20016;-62
2021/09/23 06:23:39;;;;;;;17.77;13.82;;;308.10;2124.80;;;;;;5094759;28;20115;-63
2021/09/23 06:26:05;;;;;;;24.65;18.58;;;308.10;2124.80;;;;;;5094822;28;20044;-62
2021/09/23 06:28:31;;;;;;;21.23;16.17;;;332.80;2150.40;;;;;;5094700;28;20381;-62
2021/09/23 06:30:59;;;;;;;29.13;18.08;;;332.80;2150.40;;;;;;5094714;28;20081;-62
2021/09/23 06:33:25;;;;;;;33.08;20.58;;;332.80;2150.40;;;;;;5094467;28;20051;-63
2021/09/23 06:35:51;;;;;;;29.38;20.63;;;332.80;2150.40;;;;;;5094589;28;20020;-62
2021/09/23 06:38:17;;;;;;;32.53;21.77;;;332.90;2150.40;;;;;;5094613;28;20032;-63
2021/09/23 06:40:43;;;;;;;22.73;17.02;;;332.90;2150.40;;;;;;5094531;28;20423;-62
2021/09/23 06:43:08;;;;;;;18.80;14.48;;;333.00;2150.40;;;;;;5092985;28;20127;-65
2021/09/23 06:45:34;;;;;;;18.27;13.15;;;333.00;2150.40;;;;;;5094372;28;20016;-65
2021/09/23 06:48:00;;;;;;;16.83;13.30;;;333.00;2124.80;;;;;;5094697;28;20694;-65
2021/09/23 06:50:26;;;;;;;19.48;13.05;;;333.00;2124.80;;;;;;5094657;28;20024;-62
2021/09/23 06:52:51;;;;;;;21.73;14.05;;;333.00;2124.80;;;;;;5093461;28;20032;-62
2021/09/23 06:55:17;;;;;;;17.38;13.30;;;333.10;2124.80;;;;;;5093699;28;20048;-63
2021/09/23 06:57:43;;;;;;;16.52;13.00;;;333.10;2124.80;;;;;;5093722;28;20024;-62
2021/09/23 07:00:09;;;;;;;17.60;13.45;;;333.10;2124.80;;;;;;5094136;28;20377;-62
2021/09/23 07:02:34;;;;;;;17.05;13.35;;;333.10;2150.40;;;;;;5094663;28;20039;-65
2021/09/23 07:05:00;;;;;;;18.45;13.85;;;333.20;2124.80;;;;;;5093954;28;20496;-65
2021/09/23 07:07:26;;;;;;;20.77;12.90;;;333.30;2124.80;;;;;;5092612;28;20028;-65
2021/09/23 07:09:51;;;;;;;20.98;13.25;;;333.30;2124.80;;;;;;5093782;28;20035;-65
2021/09/23 07:12:17;;;;;;;16.50;12.98;;;333.30;2124.80;;;;;;5093904;28;20124;-65
2021/09/23 07:14:43;;;;;;;22.98;13.55;;;333.30;2124.80;;;;;;5094057;28;20035;-65
2021/09/23 07:17:08;;;;;;;23.40;13.48;;;333.30;2150.40;;;;;;5093210;28;20123;-65
2021/09/23 07:19:34;;;;;;;22.02;14.50;;;333.40;2150.40;;;;;;5094005;28;20085;-65
2021/09/23 07:22:00;;;;;;;19.48;13.25;;;333.50;2150.40;;;;;;5093891;28;20458;-65
2021/09/23 07:24:26;;;;;;;17.88;13.52;;;333.50;2150.40;;;;;;5093792;28;20115;-65
2021/09/23 07:26:52;;;;;;;22.38;13.80;;;333.50;2150.40;;;;;;5094048;28;20027;-62
2021/09/23 07:29:18;;;;;;;17.60;12.63;;;333.60;2150.40;;;;;;5092036;28;20032;-62
2021/09/23 07:31:44;;;;;;;17.00;12.13;;;333.70;2150.40;;;;;;5093568;28;20154;-62
2021/09/23 07:34:12;;;;;;;16.02;12.73;;;358.40;2124.80;;;;;;5093456;28;20539;-62
2021/09/23 07:36:38;;;;;;;13.95;11.93;;;358.50;2124.80;;;;;;5093418;28;20085;-62
2021/09/23 07:39:06;;;;;;;15.85;12.02;;;358.60;2099.20;;;;;;5092133;28;20060;-63
2021/09/23 07:41:34;;;;;;;13.68;11.23;;;358.80;2099.20;;;;;;5093465;28;20080;-62
2021/09/23 07:44:00;;;;;;;16.30;11.80;;;358.90;2099.20;;;;;;5093255;28;20032;-62
2021/09/23 07:46:25;;;;;;;15.15;12.43;;;359.00;2073.60;;;;;;5093428;28;20051;-62
2021/09/23 07:48:53;;;;;;;19.40;11.90;;;359.10;2073.60;;;;;;5093424;28;20146;-62
2021/09/23 07:51:20;;;;;;;15.23;11.80;;;359.20;2048.00;;;;;;5092905;28;20039;-62
2021/09/23 07:53:46;;;;;;;14.20;11.10;;;359.20;2022.40;;;;;;5093279;28;20027;-62
2021/09/23 07:56:12;;;;;;;15.00;11.23;;;359.20;1996.80;;;;;;5093579;28;20024;-62
2021/09/23 07:58:38;;;;;;;13.60;11.52;;;359.30;1996.80;;;;;;5092097;28;20016;-62
2021/09/23 08:01:03;;;;;;;15.93;12.27;;;384.00;1996.80;;;;;;5092777;28;20430;-62
2021/09/23 08:03:29;;;;;;;14.80;11.15;;;384.00;1996.80;;;;;;5093893;28;20493;-62
2021/09/23 08:05:56;;;;;;;12.82;10.82;;;384.10;1971.20;;;;;;5097079;28;20048;-62
2021/09/23 08:08:21;;;;;;;16.58;12.35;;;384.20;1971.20;;;;;;5097052;28;20109;-62
2021/09/23 08:10:47;;;;;;;14.98;11.73;;;384.20;1971.20;;;;;;5096801;28;20059;-62
2021/09/23 08:13:13;;;;;;;18.60;12.60;;;384.20;1945.60;;;;;;5095270;28;20036;-61
2021/09/23 08:15:39;;;;;;;15.40;11.85;;;384.30;1945.60;;;;;;5096699;28;20024;-62
2021/09/23 08:18:04;;;;;;;20.25;13.32;;;384.40;1920.00;;;;;;5095375;28;20389;-62
2021/09/23 08:20:30;;;;;;;17.23;12.13;;;384.50;1920.00;;;;;;5096820;28;20478;-63
2021/09/23 08:22:56;;;;;;;21.98;12.77;;;384.70;1920.00;;;;;;5096384;28;20043;-63
2021/09/23 08:25:22;;;;;;;23.50;12.95;;;384.90;1920.00;;;;;;5096646;28;20016;-62
2021/09/23 08:27:47;;;;;;;16.98;11.85;;;409.60;1920.00;;;;;;5096287;28;20028;-62
2021/09/23 08:30:14;;;;;;;20.05;12.15;;;409.80;1920.00;;;;;;5094097;28;20032;-62
2021/09/23 08:32:39;;;;;;;17.30;10.60;;;409.80;1843.20;;;;;;5094244;28;20020;-62
2021/09/23 08:35:06;;;;;;;18.48;11.77;;;410.00;1843.20;;;;;;5095368;28;20483;-62
2021/09/23 08:37:34;;;;;;;17.92;11.65;;;410.10;1843.20;;;;;;5095198;28;20107;-62
2021/09/23 08:40:00;;;;;;;21.65;11.98;;;410.20;1817.60;;;;;;5092829;28;20355;-62
2021/09/23 08:42:27;;;;;;;18.60;11.90;;;410.30;1792.00;;;;;;5095365;28;20035;-62
2021/09/23 08:44:56;;;;;;;17.02;13.02;;;410.40;1766.40;;;;;;5095208;28;20499;-62
2021/09/23 08:47:22;;;;;;;20.30;11.95;;;410.40;1766.40;;;;;;5095177;28;20046;-62
2021/09/23 08:49:48;;;;;;;19.30;12.77;;;410.40;1740.80;;;;;;5095198;28;20064;-62
2021/09/23 08:52:14;;;;;;;17.40;12.90;;;410.50;1740.80;;;;;;5095210;28;20473;-63
2021/09/23 08:54:39;;;;;;;17.10;13.13;;;435.20;1740.80;;;;;;5095054;28;20051;-62
2021/09/23 08:57:06;;;;;;;17.67;13.82;;;435.20;1740.80;;;;;;5093656;28;20134;-62
2021/09/23 08:59:32;;;;;;;18.98;13.88;;;410.50;1740.80;;;;;;5094961;28;20020;-62
2021/09/23 09:01:59;;;;;;;22.13;16.67;;;435.20;1715.20;;;;;;5095012;28;20020;-62
2021/09/23 09:04:32;;;;;;;28.83;21.23;;;435.20;1740.80;;;;;;5094858;28;20036;-62
2021/09/23 09:07:00;;;;;;;38.15;26.17;;;435.20;1740.80;;;;;;5092981;28;20023;-62
2021/09/23 09:09:26;;;;;;;32.30;26.02;;;435.20;1766.40;;;;;;5095647;28;20089;-62
2021/09/23 09:11:53;;;;;;;26.30;20.88;;;435.20;1766.40;;;;;;5094474;28;20367;-63
2021/09/23 09:14:27;;;;;;;27.75;15.02;;;435.20;1740.80;;;;;;5096161;28;20028;-63
2021/09/23 09:17:07;;;;;;;54.30;14.68;;;435.20;1740.80;;;;;;5095567;28;20056;-63
2021/09/23 09:20:02;;;;;;;84.32;17.17;;;435.30;1740.80;;;;;;5096052;28;20024;-62
2021/09/23 09:22:29;;;;;;;58.47;14.82;;;435.30;1766.40;;;;;;5093554;28;20036;-62
2021/09/23 09:24:58;;;;;;;28.85;11.65;;;435.30;1740.80;;;;;;5095940;28;20047;-62
2021/09/23 09:27:45;;;;;;;35.90;11.63;;;435.30;1740.80;;;;;;5095787;28;20069;-62
2021/09/23 09:30:21;;;;;;;18.02;10.85;;;435.30;1740.80;;;;;;5096109;28;20020;-62
2021/09/23 09:32:48;;;;;;;12.93;10.93;;;435.30;1740.80;;;;;;5096434;28;20048;-62
2021/09/23 09:35:36;;;;;;;19.38;10.52;;;435.30;1740.80;;;;;;5095393;28;20020;-62
2021/09/23 09:38:04;;;;;;;16.60;11.25;;;435.30;1715.20;;;;;;5095754;28;20089;-62
2021/09/23 09:40:34;;;;;;;19.63;10.80;;;435.30;1715.20;;;;;;5095555;28;20028;-62
2021/09/23 09:43:04;;;;;;;14.73;11.48;;;435.30;1715.20;;;;;;5095639;28;20023;-62
2021/09/23 09:45:30;;;;;;;22.58;12.32;;;435.30;1715.20;;;;;;5095691;28;20020;-62
2021/09/23 09:47:58;;;;;;;24.10;11.40;;;435.30;1715.20;;;;;;5094475;28;20043;-62
2021/09/23 09:50:35;;;;;;;19.48;11.88;;;435.30;1715.20;;;;;;5095701;28;20446;-62
2021/09/23 09:53:13;;;;;;;27.45;11.98;;;435.30;1715.20;;;;;;5095342;28;20059;-62
2021/09/23 09:55:41;;;;;;;27.88;10.95;;;435.30;1715.20;;;;;;5095184;28;20044;-62
2021/09/23 09:58:08;;;;;;;23.50;11.18;;;435.30;1715.20;;;;;;5094281;28;20185;-62
2021/09/23 10:00:36;;;;;;;16.30;10.80;;;435.30;1689.60;;;;;;5095184;28;20085;-62
2021/09/23 10:03:02;;;;;;;19.15;10.30;;;435.30;1689.60;;;;;;5095044;28;20032;-62
2021/09/23 10:05:28;;;;;;;33.88;12.10;;;435.30;1689.60;;;;;;5095301;28;20073;-62
2021/09/23 10:07:56;;;;;;;196.20;26.73;;;435.30;1689.60;;;;;;5095125;28;20035;-63
2021/09/23 10:10:25;;;;;;;55.97;13.05;;;435.30;1689.60;;;;;;5095132;28;20046;-62
2021/09/23 10:12:56;;;;;;;20.13;11.20;;;435.30;1689.60;;;;;;5094415;28;20731;-63
2021/09/23 10:15:22;;;;;;;16.70;11.27;;;435.30;1689.60;;;;;;5093735;28;20039;-61
2021/09/23 10:17:50;;;;;;;16.10;10.95;;;435.30;1689.60;;;;;;5095026;28;20378;-61
2021/09/23 10:20:22;;;;;;;19.13;10.40;;;435.20;1689.60;;;;;;5094811;28;20039;-61
2021/09/23 10:22:48;;;;;;;14.38;10.40;;;435.30;1689.60;;;;;;5094950;28;20039;-62
2021/09/23 10:25:19;;;;;;;13.00;9.90;;;435.20;1689.60;;;;;;5094768;28;20081;-61
2021/09/23 10:27:58;;;;;;;21.67;11.50;;;435.30;1689.60;;;;;;5094669;28;20020;-61
2021/09/23 10:30:41;;;;;;;14.35;9.70;;;435.30;1689.60;;;;;;5094700;28;20024;-62
2021/09/23 10:33:07;;;;;;;13.98;10.13;;;435.40;1689.60;;;;;;5094541;28;20501;-61
2021/09/23 10:35:33;;;;;;;11.60;9.73;;;435.40;1689.60;;;;;;5094548;28;20032;-61
2021/09/23 10:38:06;;;;;;;12.30;10.25;;;435.50;1664.00;;;;;;5094515;28;20031;-61
2021/09/23 10:40:34;;;;;;;17.15;9.45;;;435.60;1664.00;;;;;;5094244;28;20474;-61
2021/09/23 10:43:05;;;;;;;19.58;9.93;;;435.70;1664.00;;;;;;5094568;28;20038;-61
2021/09/23 10:45:33;;;;;;;28.60;11.10;;;435.70;1664.00;;;;;;5094495;28;20404;-62
2021/09/23 10:48:00;;;;;;;16.65;9.98;;;435.80;1664.00;;;;;;5094373;28;20056;-62
2021/09/23 10:50:31;;;;;;;9.63;7.95;;;435.90;1638.40;;;;;;5094370;28;20027;-62
2021/09/23 10:52:59;;;;;;;14.27;8.73;;;435.90;1638.40;;;;;;5094398;28;20114;-61
2021/09/23 10:55:27;;;;;;;17.90;8.07;;;436.00;1612.80;;;;;;5094186;28;20027;-61
2021/09/23 10:57:54;;;;;;;15.25;8.00;;;436.00;1612.80;;;;;;5094550;28;20537;-61
2021/09/23 11:00:28;;;;;;;13.00;7.70;;;460.80;1612.80;;;;;;5092820;28;20024;-61
2021/09/23 11:02:55;;;;;;;8.80;7.43;;;460.90;1612.80;;;;;;5094134;28;20382;-61
2021/09/23 11:05:23;;;;;;;12.23;7.53;;;460.90;1587.20;;;;;;5093941;28;20024;-61
2021/09/23 11:07:52;;;;;;;8.55;7.65;;;461.00;1561.60;;;;;;5094232;28;20046;-61
2021/09/23 11:10:23;;;;;;;8.45;7.43;;;461.00;1536.00;;;;;;5094330;28;20374;-61
2021/09/23 11:12:53;;;;;;;8.82;7.78;;;461.00;1561.60;;;;;;5093771;28;20048;-61
2021/09/23 11:15:23;;;;;;;9.43;7.63;;;461.10;1561.60;;;;;;5093868;28;20043;-61
2021/09/23 11:17:50;;;;;;;9.25;8.25;;;461.20;1561.60;;;;;;5093873;28;20026;-61
2021/09/23 11:20:21;;;;;;;8.85;7.38;;;461.30;1561.60;;;;;;5093935;28;20024;-62
2021/09/23 11:22:57;;;;;;;10.88;8.25;;;461.30;1510.40;;;;;;5093857;28;20051;-61
2021/09/23 11:25:31;;;;;;;12.13;8.52;;;461.30;1510.40;;;;;;5093630;28;20019;-61
2021/09/23 11:27:58;;;;;;;13.52;8.68;;;461.40;1536.00;;;;;;5093585;28;20036;-62
2021/09/23 11:30:28;;;;;;;12.85;9.15;;;461.50;1536.00;;;;;;5093743;28;20030;-61
2021/09/23 11:32:56;;;;;;;11.32;8.13;;;461.50;1510.40;;;;;;5093727;28;20028;-61
2021/09/23 11:35:25;;;;;;;16.80;8.48;;;461.50;1510.40;;;;;;5093663;28;20024;-62
2021/09/23 11:37:52;;;;;;;8.70;7.80;;;461.60;1510.40;;;;;;5093433;28;20028;-61
2021/09/23 11:40:26;;;;;;;10.40;6.97;;;461.60;1484.80;;;;;;5093404;28;20484;-62
2021/09/23 11:42:53;;;;;;;7.85;7.00;;;461.60;1459.20;;;;;;5093869;28;20040;-61
2021/09/23 11:45:22;;;;;;;9.10;6.20;;;461.60;1459.20;;;;;;5092425;28;20127;-61
2021/09/23 11:47:50;;;;;;;11.60;7.53;;;461.60;1459.20;;;;;;5093623;28;20078;-62
2021/09/23 11:50:36;;;;;;;7.70;6.90;;;461.60;1433.60;;;;;;5093683;28;20024;-63
2021/09/23 11:53:01;;;;;;;21.02;6.38;;;461.60;1433.60;;;;;;5093454;28;20028;-62
2021/09/23 11:55:27;;;;;;;7.85;6.38;;;461.60;1433.60;;;;;;5093465;28;20035;-63
2021/09/23 11:58:02;;;;;;;10.55;6.72;;;461.60;1433.60;;;;;;5093387;28;20110;-62
2021/09/23 12:00:36;;;;;;;7.20;6.13;;;461.60;1433.60;;;;;;5093451;28;20055;-63